sensor_id;sensor_type;location;lat;lon;timestamp;temperature;humidity
28253;DHT22;15515;45.588;5.276;2022-07-22T04:33:05;21.40;89.60
28253;DHT22;15515;45.588;5.276;2022-07-22T04:35:34;21.50;89.60
28253;DHT22;15515;45.588;5.276;2022-07-22T04:38:12;21.50;89.50
28253;DHT22;15515;45.588;5.276;2022-07-22T04:40:48;21.30;90.40
28253;DHT22;15515;45.588;5.276;2022-07-22T04:43:20;21.40;90.10
28253;DHT22;15515;45.588;5.276;2022-07-22T04:45:48;21.40;90.10
28253;DHT22;15515;45.588;5.276;2022-07-22T04:48:19;21.60;88.40
28253;DHT22;15515;45.588;5.276;2022-07-22T04:50:48;21.70;88.00
28253;DHT22;15515;45.588;5.276;2022-07-22T04:53:16;21.30;90.70
28253;DHT22;15515;45.588;5.276;2022-07-22T04:55:46;21.40;90.60
28253;DHT22;15515;45.588;5.276;2022-07-22T04:58:13;21.30;91.10
28253;DHT22;15515;45.588;5.276;2022-07-22T05:00:45;21.30;90.60
28253;DHT22;15515;45.588;5.276;2022-07-22T05:03:13;21.60;89.20
28253;DHT22;15515;45.588;5.276;2022-07-22T05:05:42;21.70;88.60
28253;DHT22;15515;45.588;5.276;2022-07-22T05:08:12;21.70;88.30
28253;DHT22;15515;45.588;5.276;2022-07-22T05:10:40;21.60;89.70
28253;DHT22;15515;45.588;5.276;2022-07-22T05:13:12;21.70;88.70
28253;DHT22;15515;45.588;5.276;2022-07-22T05:15:41;21.80;87.70
28253;DHT22;15515;45.588;5.276;2022-07-22T05:18:10;21.90;85.90
28253;DHT22;15515;45.588;5.276;2022-07-22T05:20:37;22.00;86.70
28253;DHT22;15515;45.588;5.276;2022-07-22T05:23:05;21.90;86.00
28253;DHT22;15515;45.588;5.276;2022-07-22T05:25:36;21.80;87.60
28253;DHT22;15515;45.588;5.276;2022-07-22T05:28:04;21.80;87.80
28253;DHT22;15515;45.588;5.276;2022-07-22T05:30:34;21.60;90.00
28253;DHT22;15515;45.588;5.276;2022-07-22T05:33:03;21.50;90.20
28253;DHT22;15515;45.588;5.276;2022-07-22T05:35:51;21.70;89.80
28253;DHT22;15515;45.588;5.276;2022-07-22T05:38:21;21.80;88.20
28253;DHT22;15515;45.588;5.276;2022-07-22T05:40:49;21.90;88.60
28253;DHT22;15515;45.588;5.276;2022-07-22T05:43:17;21.90;88.60
28253;DHT22;15515;45.588;5.276;2022-07-22T05:45:45;22.00;88.10
28253;DHT22;15515;45.588;5.276;2022-07-22T05:48:13;22.10;86.90
28253;DHT22;15515;45.588;5.276;2022-07-22T05:50:40;22.20;85.80
28253;DHT22;15515;45.588;5.276;2022-07-22T05:53:08;22.30;86.00
28253;DHT22;15515;45.588;5.276;2022-07-22T05:55:36;22.40;85.00
28253;DHT22;15515;45.588;5.276;2022-07-22T05:58:08;22.50;85.00
28253;DHT22;15515;45.588;5.276;2022-07-22T06:00:36;22.20;86.90
28253;DHT22;15515;45.588;5.276;2022-07-22T06:03:04;22.50;85.00
28253;DHT22;15515;45.588;5.276;2022-07-22T06:05:33;22.80;83.60
28253;DHT22;15515;45.588;5.276;2022-07-22T06:08:10;22.90;83.00
28253;DHT22;15515;45.588;5.276;2022-07-22T06:10:47;23.10;82.20
28253;DHT22;15515;45.588;5.276;2022-07-22T06:13:16;23.10;81.10
28253;DHT22;15515;45.588;5.276;2022-07-22T06:15:43;23.20;81.10
28253;DHT22;15515;45.588;5.276;2022-07-22T06:18:12;23.40;79.50
28253;DHT22;15515;45.588;5.276;2022-07-22T06:20:39;23.60;78.40
28253;DHT22;15515;45.588;5.276;2022-07-22T06:23:07;23.70;77.90
28253;DHT22;15515;45.588;5.276;2022-07-22T06:25:40;23.80;78.00
28253;DHT22;15515;45.588;5.276;2022-07-22T06:28:21;23.90;78.10
28253;DHT22;15515;45.588;5.276;2022-07-22T06:30:49;24.00;76.90
28253;DHT22;15515;45.588;5.276;2022-07-22T06:33:21;24.10;77.00
28253;DHT22;15515;45.588;5.276;2022-07-22T06:35:49;24.10;77.50
28253;DHT22;15515;45.588;5.276;2022-07-22T06:38:17;24.10;77.10
28253;DHT22;15515;45.588;5.276;2022-07-22T06:41:13;24.30;76.90
28253;DHT22;15515;45.588;5.276;2022-07-22T06:43:51;24.20;76.90
28253;DHT22;15515;45.588;5.276;2022-07-22T06:46:41;24.30;76.40
28253;DHT22;15515;45.588;5.276;2022-07-22T06:49:10;24.50;75.70
28253;DHT22;15515;45.588;5.276;2022-07-22T06:51:38;24.80;74.40
28253;DHT22;15515;45.588;5.276;2022-07-22T06:54:08;25.00;73.70
28253;DHT22;15515;45.588;5.276;2022-07-22T06:56:43;25.20;72.60
28253;DHT22;15515;45.588;5.276;2022-07-22T06:59:16;25.40;71.20
28253;DHT22;15515;45.588;5.276;2022-07-22T07:01:46;25.40;69.20
28253;DHT22;15515;45.588;5.276;2022-07-22T07:04:28;25.60;69.10
28253;DHT22;15515;45.588;5.276;2022-07-22T07:06:59;25.70;68.60
28253;DHT22;15515;45.588;5.276;2022-07-22T07:09:33;26.00;67.90
28253;DHT22;15515;45.588;5.276;2022-07-22T07:12:21;26.20;67.10
28253;DHT22;15515;45.588;5.276;2022-07-22T07:15:28;26.40;66.30
28253;DHT22;15515;45.588;5.276;2022-07-22T07:18:07;26.60;65.50
28253;DHT22;15515;45.588;5.276;2022-07-22T07:20:37;26.80;64.70
28253;DHT22;15515;45.588;5.276;2022-07-22T07:23:09;27.00;64.60
28253;DHT22;15515;45.588;5.276;2022-07-22T07:25:43;27.10;64.20
28253;DHT22;15515;45.588;5.276;2022-07-22T07:28:13;27.40;63.80
28253;DHT22;15515;45.588;5.276;2022-07-22T07:30:57;27.50;63.30
28253;DHT22;15515;45.588;5.276;2022-07-22T07:33:27;27.70;62.50
28253;DHT22;15515;45.588;5.276;2022-07-22T07:35:56;27.70;61.40
28253;DHT22;15515;45.588;5.276;2022-07-22T07:38:35;27.90;61.40
28253;DHT22;15515;45.588;5.276;2022-07-22T07:41:07;27.90;60.90
28253;DHT22;15515;45.588;5.276;2022-07-22T07:43:38;27.80;61.10
28253;DHT22;15515;45.588;5.276;2022-07-22T07:46:13;27.90;62.10
28253;DHT22;15515;45.588;5.276;2022-07-22T07:48:40;28.10;61.50
28253;DHT22;15515;45.588;5.276;2022-07-22T07:51:09;28.10;61.10
28253;DHT22;15515;45.588;5.276;2022-07-22T07:53:39;28.40;61.10
28253;DHT22;15515;45.588;5.276;2022-07-22T07:56:15;28.50;60.40
28253;DHT22;15515;45.588;5.276;2022-07-22T07:58:43;28.40;60.70
28253;DHT22;15515;45.588;5.276;2022-07-22T08:01:22;28.70;60.80
28253;DHT22;15515;45.588;5.276;2022-07-22T08:03:57;29.00;60.00
28253;DHT22;15515;45.588;5.276;2022-07-22T08:06:35;29.10;59.30
28253;DHT22;15515;45.588;5.276;2022-07-22T08:09:06;29.30;59.20
28253;DHT22;15515;45.588;5.276;2022-07-22T08:11:38;29.20;59.30
28253;DHT22;15515;45.588;5.276;2022-07-22T08:14:25;29.60;58.90
28253;DHT22;15515;45.588;5.276;2022-07-22T08:17:24;29.90;58.30
28253;DHT22;15515;45.588;5.276;2022-07-22T08:19:53;30.20;57.60
28253;DHT22;15515;45.588;5.276;2022-07-22T08:22:22;30.20;57.60
28253;DHT22;15515;45.588;5.276;2022-07-22T08:24:54;30.50;57.30
28253;DHT22;15515;45.588;5.276;2022-07-22T08:27:27;30.80;56.90
28253;DHT22;15515;45.588;5.276;2022-07-22T08:29:57;30.90;56.60
28253;DHT22;15515;45.588;5.276;2022-07-22T08:32:26;31.10;56.80
28253;DHT22;15515;45.588;5.276;2022-07-22T08:34:54;31.30;56.10
28253;DHT22;15515;45.588;5.276;2022-07-22T08:37:21;31.40;56.00
28253;DHT22;15515;45.588;5.276;2022-07-22T08:39:51;31.70;55.50
28253;DHT22;15515;45.588;5.276;2022-07-22T08:42:21;31.90;55.00
28253;DHT22;15515;45.588;5.276;2022-07-22T08:44:54;32.20;54.90
28253;DHT22;15515;45.588;5.276;2022-07-22T08:47:29;32.30;54.20
28253;DHT22;15515;45.588;5.276;2022-07-22T08:50:16;32.60;53.90
28253;DHT22;15515;45.588;5.276;2022-07-22T08:52:57;32.90;53.20
28253;DHT22;15515;45.588;5.276;2022-07-22T08:55:27;33.00;52.70
28253;DHT22;15515;45.588;5.276;2022-07-22T08:57:55;33.10;52.10
28253;DHT22;15515;45.588;5.276;2022-07-22T09:00:24;33.20;52.40
28253;DHT22;15515;45.588;5.276;2022-07-22T09:02:52;33.40;51.90
28253;DHT22;15515;45.588;5.276;2022-07-22T09:05:20;33.50;50.80
28253;DHT22;15515;45.588;5.276;2022-07-22T09:08:12;33.70;51.20
28253;DHT22;15515;45.588;5.276;2022-07-22T09:10:53;33.30;50.40
28253;DHT22;15515;45.588;5.276;2022-07-22T09:13:44;33.10;50.50
28253;DHT22;15515;45.588;5.276;2022-07-22T09:16:47;33.30;50.20
28253;DHT22;15515;45.588;5.276;2022-07-22T09:19:38;33.60;49.90
28253;DHT22;15515;45.588;5.276;2022-07-22T09:22:46;33.60;49.60
28253;DHT22;15515;45.588;5.276;2022-07-22T09:25:31;34.00;49.50
28253;DHT22;15515;45.588;5.276;2022-07-22T09:28:25;34.10;49.00
28253;DHT22;15515;45.588;5.276;2022-07-22T09:31:30;34.30;48.90
28253;DHT22;15515;45.588;5.276;2022-07-22T09:34:29;34.30;48.30
28253;DHT22;15515;45.588;5.276;2022-07-22T09:37:10;34.10;48.40
28253;DHT22;15515;45.588;5.276;2022-07-22T09:39:38;34.30;48.80
28253;DHT22;15515;45.588;5.276;2022-07-22T09:42:07;34.50;47.90
28253;DHT22;15515;45.588;5.276;2022-07-22T09:44:34;35.00;47.80
28253;DHT22;15515;45.588;5.276;2022-07-22T09:47:27;35.20;47.50
28253;DHT22;15515;45.588;5.276;2022-07-22T09:50:28;35.60;46.70
28253;DHT22;15515;45.588;5.276;2022-07-22T09:53:20;35.80;47.10
28253;DHT22;15515;45.588;5.276;2022-07-22T09:55:58;36.00;47.30
28253;DHT22;15515;45.588;5.276;2022-07-22T09:58:27;36.10;47.30
28253;DHT22;15515;45.588;5.276;2022-07-22T10:00:58;36.10;46.30
28253;DHT22;15515;45.588;5.276;2022-07-22T10:03:32;35.80;45.80
28253;DHT22;15515;45.588;5.276;2022-07-22T10:06:02;36.10;45.90
28253;DHT22;15515;45.588;5.276;2022-07-22T10:08:33;36.20;45.40
28253;DHT22;15515;45.588;5.276;2022-07-22T10:11:05;36.30;45.40
28253;DHT22;15515;45.588;5.276;2022-07-22T10:13:37;36.40;45.50
28253;DHT22;15515;45.588;5.276;2022-07-22T10:16:06;36.50;45.10
28253;DHT22;15515;45.588;5.276;2022-07-22T10:18:37;36.50;44.50
28253;DHT22;15515;45.588;5.276;2022-07-22T10:21:10;36.60;44.70
28253;DHT22;15515;45.588;5.276;2022-07-22T10:24:13;37.10;44.60
28253;DHT22;15515;45.588;5.276;2022-07-22T10:26:56;37.20;44.20
28253;DHT22;15515;45.588;5.276;2022-07-22T10:29:30;37.50;43.60
28253;DHT22;15515;45.588;5.276;2022-07-22T10:40:25;38.20;41.90
28253;DHT22;15515;45.588;5.276;2022-07-22T10:43:04;38.30;42.40
28253;DHT22;15515;45.588;5.276;2022-07-22T10:45:49;38.40;42.20
28253;DHT22;15515;45.588;5.276;2022-07-22T10:50:55;38.30;41.90
28253;DHT22;15515;45.588;5.276;2022-07-22T10:53:55;38.30;41.70
28253;DHT22;15515;45.588;5.276;2022-07-22T10:56:33;38.60;40.50
28253;DHT22;15515;45.588;5.276;2022-07-22T10:59:09;38.90;39.80
28253;DHT22;15515;45.588;5.276;2022-07-22T11:01:43;39.10;39.30
28253;DHT22;15515;45.588;5.276;2022-07-22T11:04:25;39.40;38.80
28253;DHT22;15515;45.588;5.276;2022-07-22T11:06:56;39.60;38.10
28253;DHT22;15515;45.588;5.276;2022-07-22T11:09:34;39.50;36.70
28253;DHT22;15515;45.588;5.276;2022-07-22T11:12:01;40.00;37.20
28253;DHT22;15515;45.588;5.276;2022-07-22T11:14:33;39.70;36.50
28253;DHT22;15515;45.588;5.276;2022-07-22T11:17:07;39.80;36.60
28253;DHT22;15515;45.588;5.276;2022-07-22T11:19:37;40.00;37.10
28253;DHT22;15515;45.588;5.276;2022-07-22T11:22:10;40.00;35.80
28253;DHT22;15515;45.588;5.276;2022-07-22T11:24:40;39.60;35.30
28253;DHT22;15515;45.588;5.276;2022-07-22T11:27:16;40.10;35.00
28253;DHT22;15515;45.588;5.276;2022-07-22T11:29:59;40.50;35.40
28253;DHT22;15515;45.588;5.276;2022-07-22T11:32:41;40.70;34.90
28253;DHT22;15515;45.588;5.276;2022-07-22T11:35:26;41.20;33.90
28253;DHT22;15515;45.588;5.276;2022-07-22T11:38:01;41.20;34.00
28253;DHT22;15515;45.588;5.276;2022-07-22T11:40:34;41.30;33.60
28253;DHT22;15515;45.588;5.276;2022-07-22T11:43:05;41.40;32.70
28253;DHT22;15515;45.588;5.276;2022-07-22T11:45:56;41.40;32.50
28253;DHT22;15515;45.588;5.276;2022-07-22T11:48:25;41.30;31.90
28253;DHT22;15515;45.588;5.276;2022-07-22T11:51:04;41.30;31.50
28253;DHT22;15515;45.588;5.276;2022-07-22T11:53:34;41.40;31.20
28253;DHT22;15515;45.588;5.276;2022-07-22T11:56:04;41.60;31.50
28253;DHT22;15515;45.588;5.276;2022-07-22T11:58:48;41.50;31.00
28253;DHT22;15515;45.588;5.276;2022-07-22T12:01:39;41.70;31.20
28253;DHT22;15515;45.588;5.276;2022-07-22T12:04:21;42.00;30.70
28253;DHT22;15515;45.588;5.276;2022-07-22T12:06:52;41.60;30.40
28253;DHT22;15515;45.588;5.276;2022-07-22T12:09:34;41.50;30.60
28253;DHT22;15515;45.588;5.276;2022-07-22T12:12:03;41.20;30.70
28253;DHT22;15515;45.588;5.276;2022-07-22T12:14:32;41.40;30.40
28253;DHT22;15515;45.588;5.276;2022-07-22T12:17:08;41.50;30.80
28253;DHT22;15515;45.588;5.276;2022-07-22T12:19:40;41.80;31.00
28253;DHT22;15515;45.588;5.276;2022-07-22T12:22:19;42.00;30.50
28253;DHT22;15515;45.588;5.276;2022-07-22T12:25:00;42.40;30.60
28253;DHT22;15515;45.588;5.276;2022-07-22T12:27:30;42.40;30.20
28253;DHT22;15515;45.588;5.276;2022-07-22T12:29:57;42.70;29.90
28253;DHT22;15515;45.588;5.276;2022-07-22T12:32:29;42.80;29.20
28253;DHT22;15515;45.588;5.276;2022-07-22T12:35:01;43.00;29.10
28253;DHT22;15515;45.588;5.276;2022-07-22T12:37:41;43.00;29.00
28253;DHT22;15515;45.588;5.276;2022-07-22T12:40:12;43.30;29.50
28253;DHT22;15515;45.588;5.276;2022-07-22T12:45:29;43.50;28.60
28253;DHT22;15515;45.588;5.276;2022-07-22T12:53:17;43.70;27.90
28253;DHT22;15515;45.588;5.276;2022-07-22T12:55:47;43.80;28.40
28253;DHT22;15515;45.588;5.276;2022-07-22T12:58:16;43.70;27.80
28253;DHT22;15515;45.588;5.276;2022-07-22T13:00:45;43.90;28.00
28253;DHT22;15515;45.588;5.276;2022-07-22T13:03:14;43.90;27.10
28253;DHT22;15515;45.588;5.276;2022-07-22T13:05:42;43.70;26.20
28253;DHT22;15515;45.588;5.276;2022-07-22T13:08:12;43.60;26.40
28253;DHT22;15515;45.588;5.276;2022-07-22T13:10:40;44.10;26.70
28253;DHT22;15515;45.588;5.276;2022-07-22T13:13:08;43.90;26.30
28253;DHT22;15515;45.588;5.276;2022-07-22T13:15:36;43.40;27.00
28253;DHT22;15515;45.588;5.276;2022-07-22T13:18:04;44.00;27.10
28253;DHT22;15515;45.588;5.276;2022-07-22T13:20:32;43.90;26.00
28253;DHT22;15515;45.588;5.276;2022-07-22T13:23:00;44.00;26.50
28253;DHT22;15515;45.588;5.276;2022-07-22T13:25:28;44.50;26.50
28253;DHT22;15515;45.588;5.276;2022-07-22T13:27:56;44.80;25.70
28253;DHT22;15515;45.588;5.276;2022-07-22T13:30:24;45.10;24.40
28253;DHT22;15515;45.588;5.276;2022-07-22T13:32:56;45.20;24.00
28253;DHT22;15515;45.588;5.276;2022-07-22T13:35:23;45.00;23.30
28253;DHT22;15515;45.588;5.276;2022-07-22T13:37:51;45.00;23.60
28253;DHT22;15515;45.588;5.276;2022-07-22T13:40:19;44.90;24.10
28253;DHT22;15515;45.588;5.276;2022-07-22T13:42:46;44.70;23.40
28253;DHT22;15515;45.588;5.276;2022-07-22T13:45:14;44.60;24.00
28253;DHT22;15515;45.588;5.276;2022-07-22T13:47:42;45.00;23.50
28253;DHT22;15515;45.588;5.276;2022-07-22T13:50:10;45.50;23.20
28253;DHT22;15515;45.588;5.276;2022-07-22T13:52:37;45.70;22.80
28253;DHT22;15515;45.588;5.276;2022-07-22T13:55:06;45.70;22.40
28253;DHT22;15515;45.588;5.276;2022-07-22T13:57:34;45.80;21.90
28253;DHT22;15515;45.588;5.276;2022-07-22T14:00:03;45.40;22.60
28253;DHT22;15515;45.588;5.276;2022-07-22T14:02:37;45.70;22.50
28253;DHT22;15515;45.588;5.276;2022-07-22T14:05:05;46.20;22.50
28253;DHT22;15515;45.588;5.276;2022-07-22T14:07:33;45.90;21.00
28253;DHT22;15515;45.588;5.276;2022-07-22T14:10:00;45.50;21.40
28253;DHT22;15515;45.588;5.276;2022-07-22T14:12:28;44.90;22.40
28253;DHT22;15515;45.588;5.276;2022-07-22T14:14:56;44.80;22.60
28253;DHT22;15515;45.588;5.276;2022-07-22T14:17:30;45.10;22.70
28253;DHT22;15515;45.588;5.276;2022-07-22T14:20:01;45.20;23.10
28253;DHT22;15515;45.588;5.276;2022-07-22T14:22:42;44.70;23.90
28253;DHT22;15515;45.588;5.276;2022-07-22T14:25:09;44.00;22.50
28253;DHT22;15515;45.588;5.276;2022-07-22T14:27:36;44.20;22.80
28253;DHT22;15515;45.588;5.276;2022-07-22T14:30:04;44.10;28.00
28253;DHT22;15515;45.588;5.276;2022-07-22T14:32:31;43.60;27.00
28253;DHT22;15515;45.588;5.276;2022-07-22T14:34:58;43.50;24.40
28253;DHT22;15515;45.588;5.276;2022-07-22T14:37:25;43.70;26.10
28253;DHT22;15515;45.588;5.276;2022-07-22T14:39:54;43.70;27.20
28253;DHT22;15515;45.588;5.276;2022-07-22T14:42:21;44.10;24.30
28253;DHT22;15515;45.588;5.276;2022-07-22T14:44:49;44.10;24.40
28253;DHT22;15515;45.588;5.276;2022-07-22T14:47:18;44.20;24.20
28253;DHT22;15515;45.588;5.276;2022-07-22T14:49:45;44.10;23.20
28253;DHT22;15515;45.588;5.276;2022-07-22T14:52:12;43.90;23.60
28253;DHT22;15515;45.588;5.276;2022-07-22T14:54:42;42.90;24.10
28253;DHT22;15515;45.588;5.276;2022-07-22T14:57:09;41.90;25.00
28253;DHT22;15515;45.588;5.276;2022-07-22T14:59:37;41.20;25.20
28253;DHT22;15515;45.588;5.276;2022-07-22T15:02:04;41.00;24.70
28253;DHT22;15515;45.588;5.276;2022-07-22T15:04:32;40.70;25.10
28253;DHT22;15515;45.588;5.276;2022-07-22T15:07:00;40.40;25.30
28253;DHT22;15515;45.588;5.276;2022-07-22T15:09:29;40.30;25.30
28253;DHT22;15515;45.588;5.276;2022-07-22T15:11:56;40.40;25.50
28253;DHT22;15515;45.588;5.276;2022-07-22T15:14:23;40.10;25.50
28253;DHT22;15515;45.588;5.276;2022-07-22T15:16:51;40.00;26.00
28253;DHT22;15515;45.588;5.276;2022-07-22T15:19:18;39.80;26.20
28253;DHT22;15515;45.588;5.276;2022-07-22T15:21:50;39.60;26.80
28253;DHT22;15515;45.588;5.276;2022-07-22T15:24:18;39.50;27.20
28253;DHT22;15515;45.588;5.276;2022-07-22T15:26:45;39.40;27.50
28253;DHT22;15515;45.588;5.276;2022-07-22T15:29:12;39.30;27.80
28253;DHT22;15515;45.588;5.276;2022-07-22T15:31:42;39.10;28.10
28253;DHT22;15515;45.588;5.276;2022-07-22T15:34:10;39.00;28.20
28253;DHT22;15515;45.588;5.276;2022-07-22T15:36:37;39.00;28.50
28253;DHT22;15515;45.588;5.276;2022-07-22T15:39:05;39.00;28.10
28253;DHT22;15515;45.588;5.276;2022-07-22T15:41:47;38.80;28.50
28253;DHT22;15515;45.588;5.276;2022-07-22T15:44:15;38.70;28.90
28253;DHT22;15515;45.588;5.276;2022-07-22T15:46:44;38.60;29.20
28253;DHT22;15515;45.588;5.276;2022-07-22T15:49:12;38.50;29.40
28253;DHT22;15515;45.588;5.276;2022-07-22T15:51:40;38.30;28.80
28253;DHT22;15515;45.588;5.276;2022-07-22T15:54:07;38.20;29.20
28253;DHT22;15515;45.588;5.276;2022-07-22T15:56:37;38.00;29.50
28253;DHT22;15515;45.588;5.276;2022-07-22T15:59:04;37.80;29.70
28253;DHT22;15515;45.588;5.276;2022-07-22T16:01:54;37.70;30.70
28253;DHT22;15515;45.588;5.276;2022-07-22T16:04:21;37.60;32.40
28253;DHT22;15515;45.588;5.276;2022-07-22T16:06:50;37.60;33.80
28253;DHT22;15515;45.588;5.276;2022-07-22T16:09:19;37.60;34.90
28253;DHT22;15515;45.588;5.276;2022-07-22T16:11:52;37.60;35.70
28253;DHT22;15515;45.588;5.276;2022-07-22T16:14:21;37.50;36.60
28253;DHT22;15515;45.588;5.276;2022-07-22T16:17:02;37.40;37.00
28253;DHT22;15515;45.588;5.276;2022-07-22T16:19:30;37.20;38.00
28253;DHT22;15515;45.588;5.276;2022-07-22T16:22:00;37.20;37.90
28253;DHT22;15515;45.588;5.276;2022-07-22T16:24:28;36.90;37.50
28253;DHT22;15515;45.588;5.276;2022-07-22T16:26:58;36.90;37.20
28253;DHT22;15515;45.588;5.276;2022-07-22T16:29:28;36.80;37.90
28253;DHT22;15515;45.588;5.276;2022-07-22T16:31:57;36.60;37.60
28253;DHT22;15515;45.588;5.276;2022-07-22T16:34:25;36.60;37.90
28253;DHT22;15515;45.588;5.276;2022-07-22T16:36:54;36.50;38.20
28253;DHT22;15515;45.588;5.276;2022-07-22T16:39:24;36.40;38.50
28253;DHT22;15515;45.588;5.276;2022-07-22T16:41:53;36.30;38.40
28253;DHT22;15515;45.588;5.276;2022-07-22T16:47:43;36.20;38.30
28253;DHT22;15515;45.588;5.276;2022-07-22T16:50:33;36.20;38.20
28253;DHT22;15515;45.588;5.276;2022-07-22T16:53:01;36.20;38.20
28253;DHT22;15515;45.588;5.276;2022-07-22T16:55:42;36.20;38.00
28253;DHT22;15515;45.588;5.276;2022-07-22T16:58:24;36.10;38.50
28253;DHT22;15515;45.588;5.276;2022-07-22T17:00:58;36.00;39.10
28253;DHT22;15515;45.588;5.276;2022-07-22T17:03:26;35.90;39.20
28253;DHT22;15515;45.588;5.276;2022-07-22T17:06:04;35.90;39.60
28253;DHT22;15515;45.588;5.276;2022-07-22T17:08:46;35.90;39.70
28253;DHT22;15515;45.588;5.276;2022-07-22T17:11:17;35.90;39.90
28253;DHT22;15515;45.588;5.276;2022-07-22T17:13:59;35.70;39.60
28253;DHT22;15515;45.588;5.276;2022-07-22T17:16:38;35.70;39.30
28253;DHT22;15515;45.588;5.276;2022-07-22T17:19:11;35.70;39.60
28253;DHT22;15515;45.588;5.276;2022-07-22T17:21:40;35.40;40.00
28253;DHT22;15515;45.588;5.276;2022-07-22T17:24:10;35.40;40.50
28253;DHT22;15515;45.588;5.276;2022-07-22T17:26:39;35.20;40.80
28253;DHT22;15515;45.588;5.276;2022-07-22T17:29:07;35.20;40.70
28253;DHT22;15515;45.588;5.276;2022-07-22T17:31:35;35.20;41.50
28253;DHT22;15515;45.588;5.276;2022-07-22T17:34:02;35.10;41.90
28253;DHT22;15515;45.588;5.276;2022-07-22T17:36:29;34.90;42.80
28253;DHT22;15515;45.588;5.276;2022-07-22T17:38:56;34.70;43.00
28253;DHT22;15515;45.588;5.276;2022-07-22T17:41:24;34.70;43.00
28253;DHT22;15515;45.588;5.276;2022-07-22T17:43:52;34.70;43.50
28253;DHT22;15515;45.588;5.276;2022-07-22T17:46:19;34.60;44.00
28253;DHT22;15515;45.588;5.276;2022-07-22T17:48:47;34.60;44.60
28253;DHT22;15515;45.588;5.276;2022-07-22T17:51:14;34.50;44.60
28253;DHT22;15515;45.588;5.276;2022-07-22T17:53:42;34.60;44.80
28253;DHT22;15515;45.588;5.276;2022-07-22T17:56:09;34.40;46.10
28253;DHT22;15515;45.588;5.276;2022-07-22T17:58:54;34.20;45.70
28253;DHT22;15515;45.588;5.276;2022-07-22T18:01:21;34.20;45.80
28253;DHT22;15515;45.588;5.276;2022-07-22T18:03:49;34.30;45.20
28253;DHT22;15515;45.588;5.276;2022-07-22T18:06:16;34.20;45.80
28253;DHT22;15515;45.588;5.276;2022-07-22T18:08:44;34.20;46.10
28253;DHT22;15515;45.588;5.276;2022-07-22T18:11:12;34.00;47.20
28253;DHT22;15515;45.588;5.276;2022-07-22T18:13:43;33.90;45.60
28253;DHT22;15515;45.588;5.276;2022-07-22T18:16:10;33.70;44.60
28253;DHT22;15515;45.588;5.276;2022-07-22T18:18:40;33.60;42.50
28253;DHT22;15515;45.588;5.276;2022-07-22T18:21:08;33.60;37.90
28253;DHT22;15515;45.588;5.276;2022-07-22T18:23:36;33.60;36.90
28253;DHT22;15515;45.588;5.276;2022-07-22T18:26:04;33.60;34.70
28253;DHT22;15515;45.588;5.276;2022-07-22T18:28:35;33.60;35.30
28253;DHT22;15515;45.588;5.276;2022-07-22T18:31:04;33.60;35.40
28253;DHT22;15515;45.588;5.276;2022-07-22T18:33:33;33.60;35.00
28253;DHT22;15515;45.588;5.276;2022-07-22T18:36:05;33.60;35.30
28253;DHT22;15515;45.588;5.276;2022-07-22T18:38:34;33.60;35.80
28253;DHT22;15515;45.588;5.276;2022-07-22T18:41:02;33.50;36.60
28253;DHT22;15515;45.588;5.276;2022-07-22T18:43:29;33.40;37.10
28253;DHT22;15515;45.588;5.276;2022-07-22T18:45:57;33.40;36.20
28253;DHT22;15515;45.588;5.276;2022-07-22T18:48:24;33.40;36.20
28253;DHT22;15515;45.588;5.276;2022-07-22T18:50:51;33.20;43.20
28253;DHT22;15515;45.588;5.276;2022-07-22T18:53:19;33.10;45.10
28253;DHT22;15515;45.588;5.276;2022-07-22T18:55:48;33.10;45.60
28253;DHT22;15515;45.588;5.276;2022-07-22T18:58:15;33.10;46.30
28253;DHT22;15515;45.588;5.276;2022-07-22T19:00:42;33.20;46.50
28253;DHT22;15515;45.588;5.276;2022-07-22T19:03:10;33.10;47.30
28253;DHT22;15515;45.588;5.276;2022-07-22T19:05:37;33.10;47.40
28253;DHT22;15515;45.588;5.276;2022-07-22T19:08:05;33.00;47.60
28253;DHT22;15515;45.588;5.276;2022-07-22T19:10:32;32.90;48.20
28253;DHT22;15515;45.588;5.276;2022-07-22T19:13:00;32.70;48.70
28253;DHT22;15515;45.588;5.276;2022-07-22T19:15:27;32.60;49.10
28253;DHT22;15515;45.588;5.276;2022-07-22T19:17:55;32.60;49.60
28253;DHT22;15515;45.588;5.276;2022-07-22T19:20:22;32.70;49.80
28253;DHT22;15515;45.588;5.276;2022-07-22T19:22:50;32.70;50.00
28253;DHT22;15515;45.588;5.276;2022-07-22T19:25:17;32.70;50.00
28253;DHT22;15515;45.588;5.276;2022-07-22T19:27:46;32.70;49.90
28253;DHT22;15515;45.588;5.276;2022-07-22T19:30:13;32.70;49.80
28253;DHT22;15515;45.588;5.276;2022-07-22T19:32:41;32.60;50.10
28253;DHT22;15515;45.588;5.276;2022-07-22T19:35:09;32.60;50.30
28253;DHT22;15515;45.588;5.276;2022-07-22T19:37:38;32.50;50.90
28253;DHT22;15515;45.588;5.276;2022-07-22T19:40:06;32.40;51.30
28253;DHT22;15515;45.588;5.276;2022-07-22T19:42:34;32.40;51.70
28253;DHT22;15515;45.588;5.276;2022-07-22T19:45:03;32.30;52.50
28253;DHT22;15515;45.588;5.276;2022-07-22T19:47:31;32.10;53.10
28253;DHT22;15515;45.588;5.276;2022-07-22T19:50:00;32.10;53.80
28253;DHT22;15515;45.588;5.276;2022-07-22T19:52:28;32.10;54.20
28253;DHT22;15515;45.588;5.276;2022-07-22T19:54:56;32.10;54.50
28253;DHT22;15515;45.588;5.276;2022-07-22T19:57:23;32.10;54.10
28253;DHT22;15515;45.588;5.276;2022-07-22T19:59:51;32.20;54.30
28253;DHT22;15515;45.588;5.276;2022-07-22T20:02:18;32.20;54.10
28253;DHT22;15515;45.588;5.276;2022-07-22T20:04:46;32.20;53.70
28253;DHT22;15515;45.588;5.276;2022-07-22T20:07:14;32.20;53.50
28253;DHT22;15515;45.588;5.276;2022-07-22T20:09:42;32.10;53.30
28253;DHT22;15515;45.588;5.276;2022-07-22T20:12:09;32.00;53.60
28253;DHT22;15515;45.588;5.276;2022-07-22T20:14:39;31.90;53.90
28253;DHT22;15515;45.588;5.276;2022-07-22T20:17:07;31.80;53.90
28253;DHT22;15515;45.588;5.276;2022-07-22T20:19:35;31.90;53.90
28253;DHT22;15515;45.588;5.276;2022-07-22T20:22:06;31.80;53.90
28253;DHT22;15515;45.588;5.276;2022-07-22T20:24:35;31.70;54.10
28253;DHT22;15515;45.588;5.276;2022-07-22T20:27:04;31.60;54.20
28253;DHT22;15515;45.588;5.276;2022-07-22T20:29:32;31.60;54.50
28253;DHT22;15515;45.588;5.276;2022-07-22T20:32:00;31.50;54.60
28253;DHT22;15515;45.588;5.276;2022-07-22T20:34:28;31.50;55.10
28253;DHT22;15515;45.588;5.276;2022-07-22T20:36:55;31.50;55.10
28253;DHT22;15515;45.588;5.276;2022-07-22T20:39:23;31.50;54.60
28253;DHT22;15515;45.588;5.276;2022-07-22T20:41:52;31.60;54.40
28253;DHT22;15515;45.588;5.276;2022-07-22T20:44:32;31.60;54.40
28253;DHT22;15515;45.588;5.276;2022-07-22T20:47:00;31.50;54.40
28253;DHT22;15515;45.588;5.276;2022-07-22T20:49:28;31.50;54.40
28253;DHT22;15515;45.588;5.276;2022-07-22T20:51:57;31.50;54.50
28253;DHT22;15515;45.588;5.276;2022-07-22T20:54:26;31.50;54.20